Time;durP1;ratioP1;P1;durP2;ratioP2;P2;SDS_P1;SDS_P2;PMS_P1;PMS_P2;Temp;Humidity;BMP_temperature;BMP_pressure;BME280_temperature;BME280_humidity;BME280_pressure;Samples;Min_cycle;Max_cycle;Signal;HPM_P1;HPM_P2
2022/08/26 00:01:13;;;;;;;17.70;4.68;;;;;;;21.51;55.45;94564.56;5005830;28;20222;-69
2022/08/26 00:03:38;;;;;;;17.30;4.80;;;;;;;21.57;53.73;94562.81;5007700;28;20718;-68
2022/08/26 00:06:05;;;;;;;14.45;4.63;;;;;;;21.72;52.83;94557.03;5008084;28;20195;-69
2022/08/26 00:08:31;;;;;;;20.92;5.20;;;;;;;21.66;54.35;94555.28;5007108;28;20358;-69
2022/08/26 00:10:56;;;;;;;16.55;4.63;;;;;;;21.55;54.24;94552.38;5005579;28;20231;-68
2022/08/26 00:13:22;;;;;;;16.73;4.38;;;;;;;21.57;53.40;94558.31;5008957;28;20241;-68
2022/08/26 00:15:49;;;;;;;11.77;4.75;;;;;;;21.58;53.80;94562.59;5009376;28;20707;-68
2022/08/26 00:18:14;;;;;;;19.52;4.88;;;;;;;21.49;53.83;94561.34;5006999;28;20203;-67
2022/08/26 00:20:40;;;;;;;8.93;4.18;;;;;;;21.59;54.09;94553.53;5011021;28;20214;-69
2022/08/26 00:23:05;;;;;;;16.58;5.20;;;;;;;21.51;55.12;94556.53;5010908;28;20222;-69
2022/08/26 00:25:32;;;;;;;10.98;4.28;;;;;;;21.45;56.20;94560.16;5010678;28;20317;-69
2022/08/26 00:27:57;;;;;;;14.73;4.63;;;;;;;21.22;57.26;94558.19;5011406;28;20226;-68
2022/08/26 00:30:25;;;;;;;14.05;4.80;;;;;;;21.16;57.80;94553.78;5009894;28;20221;-68
2022/08/26 00:32:51;;;;;;;12.68;4.63;;;;;;;21.30;57.22;94554.38;5012103;28;20210;-69
2022/08/26 00:35:17;;;;;;;14.18;4.78;;;;;;;21.24;57.13;94542.75;5011796;28;20219;-68
2022/08/26 00:37:43;;;;;;;13.23;4.57;;;;;;;21.16;57.88;94548.44;5015120;28;20230;-68
2022/08/26 00:40:17;;;;;;;12.13;5.13;;;;;;;21.17;58.24;94549.25;5012144;28;20743;-68
2022/08/26 00:42:43;;;;;;;14.10;4.45;;;;;;;21.29;57.89;94547.41;5009682;28;20250;-68
2022/08/26 00:45:09;;;;;;;13.93;4.93;;;;;;;21.30;58.02;94554.38;5018058;28;20211;-68
2022/08/26 00:47:58;;;;;;;15.63;4.88;;;;;;;21.20;58.60;94548.78;5011733;28;20309;-68
2022/08/26 00:50:32;;;;;;;9.48;4.55;;;;;;;21.13;59.02;94546.22;5012328;28;20250;-69
2022/08/26 00:53:00;;;;;;;10.27;5.28;;;;;;;21.18;59.16;94556.22;5011827;28;20239;-69
2022/08/26 00:55:37;;;;;;;16.70;5.38;;;;;;;21.22;58.66;94558.19;5009428;28;20598;-68
2022/08/26 00:58:05;;;;;;;15.95;4.68;;;;;;;21.29;56.73;94552.75;5006204;28;20225;-69
2022/08/26 01:00:31;;;;;;;18.48;4.88;;;;;;;21.24;56.37;94555.31;5004129;28;20592;-69
2022/08/26 01:02:59;;;;;;;14.10;4.60;;;;;;;21.13;57.17;94546.22;5010947;28;20213;-69
2022/08/26 01:05:25;;;;;;;16.58;4.80;;;;;;;21.13;57.04;94548.88;5011220;28;20684;-69
2022/08/26 01:07:51;;;;;;;15.90;4.85;;;;;;;21.16;56.37;94545.75;5008428;28;20353;-70
2022/08/26 01:10:24;;;;;;;14.13;4.88;;;;;;;21.14;57.67;94546.00;5012985;28;20571;-69
2022/08/26 01:13:04;;;;;;;15.25;4.60;;;;;;;21.24;56.63;94544.63;5017483;28;21182;-69
2022/08/26 01:15:34;;;;;;;13.30;4.35;;;;;;;21.10;56.79;94539.47;5003923;28;20230;-69
2022/08/26 01:18:04;;;;;;;12.13;4.00;;;;;;;21.23;55.39;94535.78;5011153;28;20201;-69
2022/08/26 01:20:38;;;;;;;14.38;3.92;;;;;;;21.34;55.03;94542.19;5005607;28;20257;-68
2022/08/26 01:23:07;;;;;;;14.57;4.55;;;;;;;21.30;55.18;94547.19;5006612;28;20926;-69
2022/08/26 01:25:36;;;;;;;14.68;4.72;;;;;;;21.21;55.88;94542.41;5008703;28;20226;-69
2022/08/26 01:28:05;;;;;;;17.88;4.75;;;;;;;21.25;55.37;94532.88;5008943;28;20487;-69
2022/08/26 01:30:33;;;;;;;17.33;4.70;;;;;;;21.26;55.08;94540.66;5005073;28;20215;-69
2022/08/26 01:33:02;;;;;;;14.55;4.55;;;;;;;21.33;54.59;94544.06;5008009;28;20213;-69
2022/08/26 01:35:29;;;;;;;13.32;4.55;;;;;;;21.34;54.72;94532.31;5008040;28;20251;-69
2022/08/26 01:37:55;;;;;;;20.08;5.63;;;;;;;21.36;55.04;94545.47;5008265;28;20229;-69
2022/08/26 01:40:26;;;;;;;11.48;3.88;;;;;;;21.29;54.87;94542.06;5010297;28;20218;-69
2022/08/26 01:42:53;;;;;;;11.75;4.95;;;;;;;21.29;54.82;94539.41;5011225;28;20250;-69
2022/08/26 01:45:24;;;;;;;18.90;4.95;;;;;;;21.22;55.21;94544.03;5008414;28;20584;-69
2022/08/26 01:47:52;;;;;;;17.17;4.40;;;;;;;21.19;54.97;94539.94;5009029;28;20202;-69
2022/08/26 01:50:22;;;;;;;16.33;4.68;;;;;;;21.22;55.36;94544.03;5025491;28;20218;-69
2022/08/26 01:52:49;;;;;;;22.02;4.88;;;;;;;21.20;55.56;94546.09;5004591;28;20250;-69
2022/08/26 01:55:17;;;;;;;17.27;4.70;;;;;;;21.13;55.96;94548.88;5028422;28;20277;-69
2022/08/26 01:57:44;;;;;;;16.73;5.28;;;;;;;21.06;56.38;94540.16;5009991;28;20222;-68
2022/08/26 02:00:14;;;;;;;14.82;4.68;;;;;;;21.07;56.62;94547.13;5010181;28;20207;-65
2022/08/26 02:02:45;;;;;;;14.75;4.28;;;;;;;20.91;57.06;94546.72;5007556;28;20199;-69
2022/08/26 02:05:15;;;;;;;14.73;4.53;;;;;;;20.85;57.75;94544.13;5009977;28;20238;-69
2022/08/26 02:07:42;;;;;;;18.02;4.57;;;;;;;20.99;57.21;94550.13;5005815;28;20250;-69
2022/08/26 02:10:08;;;;;;;15.48;4.68;;;;;;;21.04;56.96;94543.06;5008854;28;20223;-69
2022/08/26 02:12:34;;;;;;;13.40;4.43;;;;;;;20.97;57.52;94539.66;5008233;28;20226;-68
2022/08/26 02:15:03;;;;;;;16.00;4.63;;;;;;;20.98;57.15;94543.94;5009041;28;20210;-69
2022/08/26 02:17:34;;;;;;;17.52;5.28;;;;;;;20.80;57.72;94536.81;5007256;28;20246;-69
2022/08/26 02:19:59;;;;;;;18.48;5.57;;;;;;;20.86;57.53;94545.78;5008109;28;20234;-69
2022/08/26 02:22:25;;;;;;;17.63;5.28;;;;;;;20.80;57.68;94544.84;5008551;28;20215;-69
2022/08/26 02:24:57;;;;;;;19.45;5.00;;;;;;;20.85;57.90;94546.81;5008462;28;20210;-70
2022/08/26 02:27:32;;;;;;;16.30;5.43;;;;;;;20.90;57.45;94538.94;5003111;28;20222;-70
2022/08/26 02:30:11;;;;;;;18.13;4.40;;;;;;;20.93;58.25;94535.84;5007031;28;20262;-70
2022/08/26 02:32:38;;;;;;;12.85;4.63;;;;;;;20.83;58.72;94536.38;5010532;28;20230;-69
2022/08/26 02:35:04;;;;;;;12.77;4.40;;;;;;;20.86;57.63;94533.25;4999956;28;20366;-69
2022/08/26 02:37:31;;;;;;;15.25;4.90;;;;;;;20.82;58.04;94536.59;5022307;28;20358;-70
2022/08/26 02:39:56;;;;;;;14.18;5.15;;;;;;;20.72;58.06;94547.84;5006662;28;20226;-70
2022/08/26 02:42:22;;;;;;;15.38;4.80;;;;;;;20.87;57.03;94542.06;5006073;28;20200;-70
2022/08/26 02:44:48;;;;;;;15.98;4.65;;;;;;;20.88;57.47;94539.19;5009351;28;20206;-69
2022/08/26 02:47:14;;;;;;;18.33;5.05;;;;;;;20.88;58.17;94541.03;5013002;28;20698;-69
2022/08/26 02:49:41;;;;;;;16.17;4.38;;;;;;;20.89;57.32;94546.13;5009450;28;20227;-69
2022/08/26 02:52:07;;;;;;;22.55;5.35;;;;;;;20.85;57.43;94544.97;5008318;28;20227;-70
2022/08/26 02:54:33;;;;;;;18.70;5.07;;;;;;;20.73;57.98;94536.09;5009598;28;20219;-68
2022/08/26 02:56:59;;;;;;;14.23;4.65;;;;;;;20.87;57.13;94542.06;5008392;28;20214;-70
2022/08/26 02:59:24;;;;;;;16.73;4.82;;;;;;;20.93;56.81;94539.31;5007329;28;20218;-70
2022/08/26 03:01:51;;;;;;;13.88;4.57;;;;;;;20.94;57.14;94542.78;5007691;28;20214;-70
2022/08/26 03:04:16;;;;;;;16.98;4.95;;;;;;;20.89;57.89;94551.47;5006395;28;20222;-69
2022/08/26 03:06:42;;;;;;;16.00;4.55;;;;;;;20.87;57.41;94548.22;5007230;28;20218;-69
2022/08/26 03:09:08;;;;;;;10.52;4.78;;;;;;;20.89;57.30;94548.00;5004959;28;20207;-70
2022/08/26 03:11:34;;;;;;;23.75;4.75;;;;;;;20.90;56.46;94552.28;5008911;28;20223;-70
2022/08/26 03:14:00;;;;;;;13.75;4.43;;;;;;;20.94;56.01;94537.44;5005609;28;20241;-69
2022/08/26 03:16:26;;;;;;;14.63;4.70;;;;;;;20.93;56.16;94546.53;5007859;28;20223;-69
2022/08/26 03:18:51;;;;;;;20.70;4.63;;;;;;;20.92;56.01;94548.34;5007066;28;20223;-69
2022/08/26 03:21:17;;;;;;;18.77;4.63;;;;;;;20.82;56.54;94541.94;5006277;28;20203;-70
2022/08/26 03:23:43;;;;;;;11.23;4.65;;;;;;;20.82;56.64;94549.94;5015576;28;20199;-69
2022/08/26 03:26:11;;;;;;;17.98;5.40;;;;;;;20.81;56.50;94554.47;5008511;28;20227;-70
2022/08/26 03:30:38;;;;;;;20.50;4.70;;;;;;;20.81;55.81;94551.00;5012779;28;21077;-69
2022/08/26 03:31:23;;;;;;;12.50;4.47;;;;;;;20.80;56.03;94544.84;5011764;28;20326;-70
2022/08/26 03:33:49;;;;;;;16.67;4.78;;;;;;;20.80;55.81;94544.03;5009838;28;20226;-69
2022/08/26 03:36:14;;;;;;;13.95;5.00;;;;;;;20.87;55.58;94550.88;5007468;28;20206;-69
2022/08/26 03:38:40;;;;;;;19.27;4.50;;;;;;;20.89;55.44;94548.00;5006740;28;20212;-69
2022/08/26 03:41:07;;;;;;;20.25;4.45;;;;;;;20.93;55.18;94543.84;5008213;28;20233;-70
2022/08/26 03:43:32;;;;;;;21.25;4.90;;;;;;;20.96;54.95;94540.72;5005499;28;20269;-69
2022/08/26 03:45:58;;;;;;;16.63;4.72;;;;;;;20.99;54.69;94540.25;5008518;28;20219;-70
2022/08/26 03:48:23;;;;;;;25.85;5.35;;;;;;;20.95;54.68;94539.06;5004392;28;20290;-70
2022/08/26 03:50:49;;;;;;;18.35;5.10;;;;;;;20.96;54.71;94538.03;5010611;28;20234;-69
2022/08/26 03:53:14;;;;;;;14.85;4.47;;;;;;;20.98;54.60;94540.47;5012812;28;20611;-69
2022/08/26 03:55:41;;;;;;;17.13;5.00;;;;;;;20.98;54.72;94545.81;5014000;28;20222;-69
2022/08/26 03:58:06;;;;;;;15.07;4.38;;;;;;;20.92;54.24;94543.00;5010619;28;20280;-69
2022/08/26 04:00:31;;;;;;;20.42;5.60;;;;;;;20.99;54.46;94545.59;5027717;28;20222;-70
2022/08/26 04:02:57;;;;;;;18.33;4.50;;;;;;;21.01;54.70;94535.50;5013847;28;20970;-70
2022/08/26 04:05:22;;;;;;;17.55;5.18;;;;;;;21.02;55.06;94547.00;5016241;28;20325;-70
2022/08/26 04:07:48;;;;;;;14.18;5.65;;;;;;;20.91;56.37;94545.94;5010255;28;20309;-70
2022/08/26 04:10:16;;;;;;;12.68;5.03;;;;;;;20.95;56.74;94539.06;5006969;28;20214;-70
2022/08/26 04:12:42;;;;;;;15.95;4.68;;;;;;;20.96;55.81;94540.72;5003013;28;20254;-70
2022/08/26 04:15:11;;;;;;;14.57;5.55;;;;;;;21.03;55.24;94530.72;5010273;28;20845;-70
2022/08/26 04:17:37;;;;;;;14.98;4.70;;;;;;;21.01;55.52;94530.16;5012396;28;20284;-69
2022/08/26 04:20:04;;;;;;;20.13;5.45;;;;;;;21.03;55.26;94529.91;5010327;28;20226;-70
2022/08/26 04:22:30;;;;;;;21.38;4.95;;;;;;;21.15;55.23;94538.78;4995840;28;20254;-70
2022/08/26 04:24:56;;;;;;;16.80;4.90;;;;;;;21.20;54.82;94536.25;5005339;28;20389;-70
2022/08/26 04:27:21;;;;;;;14.65;4.72;;;;;;;21.20;54.69;94538.09;5005557;28;20202;-70
2022/08/26 04:29:47;;;;;;;18.55;5.45;;;;;;;21.13;54.97;94535.53;5008449;28;20238;-71
2022/08/26 04:32:12;;;;;;;16.77;5.32;;;;;;;21.13;55.29;94530.19;5011938;28;20227;-70
2022/08/26 04:34:38;;;;;;;17.92;5.75;;;;;;;21.19;54.96;94539.94;5012400;28;20227;-69
2022/08/26 04:37:04;;;;;;;16.02;5.13;;;;;;;21.23;54.33;94535.78;5013643;28;20219;-70
2022/08/26 04:39:30;;;;;;;16.67;5.07;;;;;;;21.18;54.14;94538.31;5010061;28;20210;-70
2022/08/26 04:41:55;;;;;;;16.30;5.18;;;;;;;21.14;54.79;94532.63;5012900;28;20201;-69
2022/08/26 04:44:26;;;;;;;21.95;5.32;;;;;;;21.29;54.48;94542.06;5011943;28;20309;-68
2022/08/26 04:46:52;;;;;;;19.42;5.60;;;;;;;21.26;53.92;94542.53;4999988;28;20223;-69
2022/08/26 04:49:19;;;;;;;16.52;4.70;;;;;;;21.23;54.15;94543.81;5010805;28;20222;-69
2022/08/26 04:51:44;;;;;;;18.20;5.22;;;;;;;21.32;53.94;94538.94;5024709;28;20572;-69
2022/08/26 04:54:11;;;;;;;17.52;5.25;;;;;;;21.44;53.77;94541.63;5012384;28;20214;-69
2022/08/26 04:59:29;;;;;;;16.95;5.28;;;;;;;21.52;54.06;94544.00;5013438;28;20384;-69
2022/08/26 05:01:58;;;;;;;21.70;5.90;;;;;;;21.57;53.66;94530.72;5007601;28;20286;-67
2022/08/26 05:04:24;;;;;;;16.23;5.10;;;;;;;21.61;53.30;94539.94;5007286;28;20237;-68
2022/08/26 05:06:49;;;;;;;17.30;5.47;;;;;;;21.66;53.31;94541.91;5005956;28;20215;-70
2022/08/26 05:09:17;;;;;;;22.05;5.65;;;;;;;21.68;53.24;94537.13;5010754;28;20214;-70
2022/08/26 05:11:44;;;;;;;15.05;4.88;;;;;;;21.68;53.17;94540.63;5004324;28;20341;-69
2022/08/26 05:14:10;;;;;;;18.10;5.32;;;;;;;21.51;53.00;94545.84;5009333;28;20262;-70
2022/08/26 05:16:36;;;;;;;20.60;6.43;;;;;;;21.80;52.98;94557.50;5025755;28;20228;-70
2022/08/26 05:19:03;;;;;;;20.83;5.88;;;;;;;21.67;53.26;94548.88;5004517;28;20215;-70
2022/08/26 05:21:28;;;;;;;25.20;5.47;;;;;;;21.67;53.29;94548.88;5008763;28;20278;-70
2022/08/26 05:23:55;;;;;;;19.67;5.57;;;;;;;21.63;53.14;94548.53;5010086;28;20655;-70
2022/08/26 05:26:23;;;;;;;16.58;5.40;;;;;;;21.63;53.77;94556.56;5009854;28;20661;-70
2022/08/26 05:28:49;;;;;;;16.33;5.22;;;;;;;21.66;53.75;94557.97;5009643;28;20223;-69
2022/08/26 05:31:19;;;;;;;22.92;5.72;;;;;;;21.77;54.92;94562.50;5010582;28;20219;-69
2022/08/26 05:33:45;;;;;;;24.77;6.10;;;;;;;21.85;53.16;94554.13;5007084;28;20215;-70
2022/08/26 05:36:14;;;;;;;15.95;5.32;;;;;;;21.80;53.79;94556.69;5007482;28;20202;-68
2022/08/26 05:38:40;;;;;;;17.95;5.65;;;;;;;21.84;54.01;94562.38;5009273;28;20202;-69
2022/08/26 05:41:17;;;;;;;22.23;6.20;;;;;;;21.96;54.61;94561.34;5004191;28;20710;-69
2022/08/26 05:43:43;;;;;;;16.45;6.50;;;;;;;22.04;54.25;94568.19;5007908;28;20792;-67
2022/08/26 05:46:08;;;;;;;16.50;5.25;;;;;;;22.14;53.90;94567.63;5009668;28;20261;-66
2022/08/26 05:48:34;;;;;;;19.60;6.00;;;;;;;22.16;52.74;94568.19;5022996;28;20240;-67
2022/08/26 05:51:03;;;;;;;15.48;5.80;;;;;;;22.20;52.32;94569.38;5008383;28;20297;-68
2022/08/26 05:53:29;;;;;;;17.27;5.57;;;;;;;22.26;52.16;94565.75;5002553;28;20293;-67
2022/08/26 05:55:55;;;;;;;17.65;6.18;;;;;;;22.25;51.73;94569.50;5009308;28;20325;-69
2022/08/26 05:58:21;;;;;;;18.15;5.97;;;;;;;22.23;51.71;94561.69;5009052;28;20309;-69
2022/08/26 06:01:09;;;;;;;11.85;5.47;;;;;;;22.27;51.45;94567.41;5012923;28;20226;-69
2022/08/26 06:03:38;;;;;;;17.83;5.70;;;;;;;22.34;51.93;94568.06;5008687;28;20219;-70
2022/08/26 06:06:06;;;;;;;17.77;5.55;;;;;;;22.41;51.61;94574.13;5019813;28;20518;-69
2022/08/26 06:08:31;;;;;;;17.20;5.85;;;;;;;22.32;52.06;94577.38;5017995;28;20219;-69
2022/08/26 06:11:00;;;;;;;17.08;5.53;;;;;;;22.35;52.92;94574.28;5006557;28;20300;-68
2022/08/26 06:13:27;;;;;;;23.88;5.93;;;;;;;22.39;51.79;94576.22;5008438;28;20261;-68
2022/08/26 06:15:54;;;;;;;15.30;5.43;;;;;;;22.45;51.82;94580.66;5009330;28;20294;-69
2022/08/26 06:18:22;;;;;;;18.02;5.72;;;;;;;22.50;51.66;94577.25;5007788;28;20207;-69
2022/08/26 06:20:49;;;;;;;24.25;7.05;;;;;;;22.51;52.38;94578.06;5010865;28;20281;-68
2022/08/26 06:26:02;;;;;;;14.88;7.60;;;;;;;22.62;51.47;94583.41;5008498;28;20257;-69
2022/08/26 06:28:28;;;;;;;19.45;5.93;;;;;;;22.62;52.12;94580.72;5006207;28;20924;-69
2022/08/26 06:30:54;;;;;;;17.17;6.07;;;;;;;22.79;53.09;94591.50;5006293;28;20314;-69
2022/08/26 06:33:20;;;;;;;14.13;6.18;;;;;;;22.80;51.72;94585.09;5008237;28;20218;-68
2022/08/26 06:35:47;;;;;;;22.25;6.93;;;;;;;22.84;51.16;94583.56;5009903;28;20256;-70
2022/08/26 06:38:13;;;;;;;17.33;6.82;;;;;;;22.86;51.29;94591.38;5008528;28;20215;-69
2022/08/26 06:40:51;;;;;;;21.77;5.85;;;;;;;22.80;51.53;94585.09;5003154;28;20310;-68
2022/08/26 06:43:22;;;;;;;18.65;7.15;;;;;;;22.85;52.95;94593.25;5003303;28;20243;-67
2022/08/26 06:45:49;;;;;;;16.00;6.45;;;;;;;22.88;52.59;94586.56;5021199;28;20269;-67
2022/08/26 06:48:18;;;;;;;15.80;8.45;;;;;;;22.81;52.71;94593.94;5015572;28;20233;-68
2022/08/26 06:50:45;;;;;;;25.02;8.00;;;;;;;22.89;51.50;94605.09;5003477;28;20236;-69
2022/08/26 06:53:15;;;;;;;15.18;6.88;;;;;;;22.80;50.93;94601.19;5009077;28;20241;-67
2022/08/26 06:55:43;;;;;;;14.68;6.13;;;;;;;22.97;50.74;94592.41;5005902;28;20238;-67
2022/08/26 06:58:09;;;;;;;23.23;6.82;;;;;;;23.01;50.60;94590.88;5006338;28;20223;-68
2022/08/26 07:00:37;;;;;;;18.52;6.25;;;;;;;22.99;50.68;94590.28;5008520;28;20222;-67
2022/08/26 07:03:04;;;;;;;18.67;6.60;;;;;;;23.20;50.21;94591.47;5005408;28;20300;-68
2022/08/26 07:05:30;;;;;;;20.25;6.32;;;;;;;23.38;49.86;94602.00;5009934;28;20229;-66
2022/08/26 07:07:56;;;;;;;16.67;6.43;;;;;;;23.27;49.80;94595.66;5008884;28;20227;-67
2022/08/26 07:10:23;;;;;;;16.88;5.70;;;;;;;23.23;50.70;94591.84;5006617;28;20585;-68
2022/08/26 07:12:48;;;;;;;15.75;6.05;;;;;;;23.27;50.49;94598.34;5007170;28;20253;-68
2022/08/26 07:15:14;;;;;;;19.00;6.25;;;;;;;23.36;51.47;94592.56;5008568;28;20641;-67
2022/08/26 07:17:39;;;;;;;19.10;6.90;;;;;;;23.48;50.42;94588.78;5012295;28;20581;-66
2022/08/26 07:20:08;;;;;;;18.98;6.68;;;;;;;23.69;51.15;94595.31;5009171;28;20222;-69
2022/08/26 07:22:35;;;;;;;21.52;6.50;;;;;;;23.85;49.51;94595.59;5007477;28;20226;-68
2022/08/26 07:25:02;;;;;;;17.95;7.03;;;;;;;23.85;48.73;94591.03;5007059;28;20303;-67
2022/08/26 07:27:27;;;;;;;22.52;6.45;;;;;;;23.70;50.43;94599.59;5010194;28;20205;-68
2022/08/26 07:29:56;;;;;;;19.17;6.55;;;;;;;23.89;48.97;94596.69;5006191;28;20207;-69
2022/08/26 07:32:21;;;;;;;22.02;6.55;;;;;;;23.96;47.78;94600.03;5007092;28;20276;-68
2022/08/26 07:34:48;;;;;;;20.95;6.28;;;;;;;24.05;47.41;94595.88;5006197;28;20223;-68
2022/08/26 07:37:13;;;;;;;17.52;6.22;;;;;;;23.92;47.19;94598.91;5008195;28;20227;-70
2022/08/26 07:39:40;;;;;;;18.25;5.90;;;;;;;23.98;47.30;94597.94;5008939;28;20319;-69
2022/08/26 07:42:07;;;;;;;13.63;5.85;;;;;;;24.13;46.65;94602.72;5005495;28;20214;-69
2022/08/26 07:44:33;;;;;;;17.05;7.28;;;;;;;24.16;46.10;94594.16;5004137;28;20221;-68
2022/08/26 07:46:58;;;;;;;14.65;5.93;;;;;;;24.15;47.46;94604.09;5007925;28;20227;-67
2022/08/26 07:49:25;;;;;;;15.50;6.15;;;;;;;23.96;47.66;94597.34;5009493;28;20223;-68
2022/08/26 07:51:51;;;;;;;21.38;5.88;;;;;;;24.09;47.65;94597.03;5010036;28;20234;-70
2022/08/26 07:54:18;;;;;;;13.98;5.80;;;;;;;24.24;46.82;94592.91;5011714;28;20206;-66
2022/08/26 07:56:43;;;;;;;15.80;5.32;;;;;;;24.32;45.42;94598.69;5008177;28;20270;-68
2022/08/26 07:59:10;;;;;;;24.90;5.60;;;;;;;24.42;45.48;94604.19;5008051;28;20306;-68
2022/08/26 08:01:36;;;;;;;18.33;6.03;;;;;;;24.55;45.38;94599.56;5006384;28;20306;-68
2022/08/26 08:04:03;;;;;;;17.20;6.03;;;;;;;24.48;44.64;94599.72;5010217;28;20314;-68
2022/08/26 08:06:29;;;;;;;19.83;6.30;;;;;;;24.65;45.22;94597.00;5004093;28;20714;-70
2022/08/26 08:08:55;;;;;;;14.98;6.10;;;;;;;24.89;43.95;94602.13;5009297;28;20210;-69
2022/08/26 08:11:21;;;;;;;14.90;5.38;;;;;;;24.98;45.18;94600.63;5007473;28;20230;-66
2022/08/26 08:13:47;;;;;;;14.25;5.10;;;;;;;25.13;43.58;94597.28;5002943;28;20893;-66
2022/08/26 08:16:12;;;;;;;13.20;5.55;;;;;;;25.24;42.62;94594.47;5005876;28;20245;-70
2022/08/26 08:18:38;;;;;;;19.77;5.75;;;;;;;25.42;41.91;94598.69;5005757;28;20238;-69
2022/08/26 08:21:04;;;;;;;17.77;6.10;;;;;;;25.45;41.71;94595.50;5013748;28;20241;-69
2022/08/26 08:23:30;;;;;;;13.77;5.85;;;;;;;25.28;41.72;94600.16;5008299;28;20721;-67
2022/08/26 08:26:01;;;;;;;18.30;5.60;;;;;;;25.27;42.91;94593.97;5008523;28;20226;-67
2022/08/26 08:28:26;;;;;;;19.60;5.45;;;;;;;25.12;42.61;94590.28;5006095;28;20257;-67
2022/08/26 08:30:52;;;;;;;17.60;5.45;;;;;;;25.22;43.46;94591.22;5010401;28;20241;-68
2022/08/26 08:33:17;;;;;;;16.80;5.88;;;;;;;25.32;42.40;94587.03;5004870;28;20325;-66
2022/08/26 08:35:44;;;;;;;17.08;4.95;;;;;;;25.30;42.72;94589.97;5007338;28;20206;-67
2022/08/26 08:38:10;;;;;;;23.98;5.85;;;;;;;25.39;42.03;94585.72;5012702;28;20219;-67
2022/08/26 08:40:38;;;;;;;19.33;5.30;;;;;;;25.39;40.46;94585.72;5009049;28;20222;-67
2022/08/26 08:43:08;;;;;;;15.73;5.40;;;;;;;25.26;40.39;94578.06;5009270;28;20231;-68
2022/08/26 08:45:37;;;;;;;15.95;6.40;;;;;;;25.33;41.14;94576.00;5012025;28;20222;-67
2022/08/26 08:48:12;;;;;;;20.50;6.80;;;;;;;25.28;41.92;94579.44;5005411;28;20293;-68
2022/08/26 08:50:50;;;;;;;22.85;6.47;;;;;;;25.55;41.26;94572.41;5009545;28;20223;-69
2022/08/26 08:53:16;;;;;;;15.02;5.15;;;;;;;25.53;41.06;94572.69;5007560;28;20226;-67
2022/08/26 08:55:54;;;;;;;22.30;5.97;;;;;;;25.54;41.11;94568.91;5011861;28;20222;-68
2022/08/26 08:58:44;;;;;;;12.85;5.20;;;;;;;25.83;41.29;94572.13;5011365;28;20211;-69
2022/08/26 09:01:23;;;;;;;21.27;6.85;;;;;;;25.81;41.20;94574.25;5011894;28;20289;-69
2022/08/26 09:03:54;;;;;;;26.88;12.48;;;;;;;25.95;41.42;94571.97;5006879;28;20217;-70
2022/08/26 09:06:20;;;;;;;27.45;9.07;;;;;;;25.81;39.72;94565.38;5008417;28;20210;-69
2022/08/26 09:08:49;;;;;;;20.00;6.80;;;;;;;25.50;38.77;94565.94;5014532;28;20198;-69
2022/08/26 09:11:16;;;;;;;17.90;6.10;;;;;;;25.49;36.78;94572.38;5009868;28;20715;-71
2022/08/26 09:13:53;;;;;;;12.18;4.97;;;;;;;25.66;38.50;94563.34;4997590;28;20243;-66
2022/08/26 09:16:23;;;;;;;11.98;5.57;;;;;;;25.92;38.64;94567.09;5005805;28;20321;-69
2022/08/26 09:19:10;;;;;;;19.85;5.72;;;;;;;25.91;40.17;94563.59;5013458;28;20367;-69
2022/08/26 09:21:36;;;;;;;16.25;5.90;;;;;;;26.02;39.66;94566.34;5000916;28;20210;-69
2022/08/26 09:24:02;;;;;;;13.65;5.68;;;;;;;25.97;39.01;94564.44;5009634;28;20202;-70
2022/08/26 09:26:39;;;;;;;24.50;6.40;;;;;;;25.79;41.12;94562.91;5009444;28;20218;-70
2022/08/26 09:29:27;;;;;;;9.73;4.70;;;;;;;25.81;37.03;94555.41;5007395;28;20228;-69
2022/08/26 09:32:20;;;;;;;10.65;5.70;;;;;;;26.16;35.08;94551.34;5005898;28;20352;-69
2022/08/26 09:34:58;;;;;;;16.45;5.85;;;;;;;26.36;33.91;94547.97;5002698;28;20223;-69
2022/08/26 09:37:40;;;;;;;14.35;4.82;;;;;;;26.65;32.91;94551.09;5006834;28;20245;-68
2022/08/26 09:40:16;;;;;;;8.68;4.78;;;;;;;27.04;32.85;94548.78;5008537;28;20214;-69
2022/08/26 09:42:41;;;;;;;18.00;5.18;;;;;;;27.02;32.87;94548.25;5011097;28;20225;-69
2022/08/26 09:45:09;;;;;;;13.70;6.05;;;;;;;27.20;31.94;94555.06;5012380;28;20202;-69
2022/08/26 09:47:59;;;;;;;10.23;4.57;;;;;;;27.14;31.05;94553.41;5009174;28;20226;-68
2022/08/26 09:50:28;;;;;;;13.73;5.53;;;;;;;26.83;30.16;94552.50;5007623;28;20234;-69
2022/08/26 09:53:20;;;;;;;13.13;6.65;;;;;;;27.15;31.19;94551.50;5003453;28;20224;-70
2022/08/26 09:55:51;;;;;;;13.20;6.72;;;;;;;27.70;30.85;94547.28;5011823;28;20250;-68
2022/08/26 09:58:41;;;;;;;17.30;6.50;;;;;;;27.87;30.17;94547.84;5005050;28;20211;-69
2022/08/26 10:01:22;;;;;;;10.57;6.65;;;;;;;28.34;29.37;94541.28;5009373;28;20234;-69
2022/08/26 10:03:49;;;;;;;12.20;6.60;;;;;;;28.74;29.15;94547.66;5009759;28;20222;-69
2022/08/26 10:06:17;;;;;;;13.98;6.53;;;;;;;29.03;29.90;94547.00;5012007;28;20207;-69
2022/08/26 10:08:49;;;;;;;9.30;5.97;;;;;;;28.80;27.06;94538.44;5010714;28;20207;-69
2022/08/26 10:11:35;;;;;;;14.55;5.72;;;;;;;27.95;28.04;94526.75;5004843;28;20234;-68
2022/08/26 10:14:06;;;;;;;13.52;5.20;;;;;;;28.38;28.83;94528.00;5008504;28;20567;-68
2022/08/26 10:16:43;;;;;;;10.85;5.80;;;;;;;28.87;28.88;94535.44;5012205;28;20234;-68
2022/08/26 10:19:15;;;;;;;13.70;6.13;;;;;;;29.25;27.92;94533.09;5005894;28;20249;-68
2022/08/26 10:21:59;;;;;;;11.48;5.82;;;;;;;29.39;26.29;94533.25;5023772;28;20226;-68
2022/08/26 10:24:33;;;;;;;16.38;5.43;;;;;;;29.44;27.04;94528.59;5000505;28;20207;-68
2022/08/26 10:27:38;;;;;;;18.38;5.90;;;;;;;29.93;25.89;94532.31;4998895;28;20214;-68
2022/08/26 10:30:10;;;;;;;9.15;5.93;;;;;;;30.00;25.78;94521.94;4923623;29;20220;-68
2022/08/26 10:32:43;;;;;;;14.23;6.28;;;;;;;30.18;26.23;94528.56;4951968;28;20246;-69
2022/08/26 10:35:11;;;;;;;12.82;6.00;;;;;;;30.28;26.11;94530.38;4944120;28;20234;-68
2022/08/26 10:38:00;;;;;;;13.50;6.10;;;;;;;30.35;26.11;94530.03;4937129;28;20614;-69
2022/08/26 10:40:29;;;;;;;12.27;7.10;;;;;;;29.49;25.58;94526.97;4947575;28;20875;-69
2022/08/26 10:43:04;;;;;;;13.77;6.80;;;;;;;29.18;26.69;94529.88;4948751;28;21097;-71
2022/08/26 10:45:34;;;;;;;11.55;6.82;;;;;;;29.34;26.31;94525.97;4929472;29;20255;-69
2022/08/26 10:48:07;;;;;;;12.70;6.00;;;;;;;28.76;27.07;94531.13;4945987;28;20224;-69
2022/08/26 10:50:42;;;;;;;18.13;6.40;;;;;;;28.91;26.64;94522.94;4929737;29;20858;-69
2022/08/26 10:53:17;;;;;;;15.48;6.40;;;;;;;29.43;26.47;94524.28;4941018;28;20716;-69
2022/08/26 10:55:48;;;;;;;14.32;6.38;;;;;;;29.64;26.59;94521.44;4948146;28;20586;-71
2022/08/26 10:58:22;;;;;;;10.52;6.45;;;;;;;29.92;26.15;94522.56;4945540;28;20263;-69
2022/08/26 11:03:54;;;;;;;13.68;6.00;;;;;;;29.98;26.12;94526.84;4946693;28;20232;-70
2022/08/26 11:06:23;;;;;;;9.45;6.65;;;;;;;30.03;25.46;94523.28;4944328;28;20218;-69
2022/08/26 11:09:01;;;;;;;11.13;6.60;;;;;;;30.52;25.02;94516.81;5006429;28;20196;-70
2022/08/26 11:11:38;;;;;;;14.00;6.47;;;;;;;31.01;24.51;94521.13;5008388;28;20266;-70
2022/08/26 11:14:19;;;;;;;14.43;7.38;;;;;;;30.94;24.66;94528.81;5007130;28;20239;-72
2022/08/26 11:16:58;;;;;;;10.70;6.65;;;;;;;31.25;23.35;94520.22;5003672;28;20337;-70
2022/08/26 11:19:39;;;;;;;9.80;6.03;;;;;;;31.57;23.44;94514.88;5004238;28;20219;-70
2022/08/26 11:22:23;;;;;;;11.52;6.97;;;;;;;31.66;23.49;94509.56;5003955;28;20277;-70
2022/08/26 11:24:52;;;;;;;13.35;7.20;;;;;;;31.77;22.33;94502.84;5005215;28;20230;-70
2022/08/26 11:27:35;;;;;;;16.25;7.38;;;;;;;31.95;22.16;94503.94;5009345;28;20202;-71
2022/08/26 11:30:06;;;;;;;11.88;6.78;;;;;;;32.00;21.88;94505.78;5002446;28;20279;-68
2022/08/26 11:32:40;;;;;;;13.25;6.53;;;;;;;32.06;22.75;94505.38;5007727;28;20245;-68
2022/08/26 11:35:45;;;;;;;13.15;6.50;;;;;;;32.20;22.66;94507.31;5008881;28;20326;-68
2022/08/26 11:38:23;;;;;;;13.98;6.43;;;;;;;32.11;22.90;94507.22;5006613;28;20230;-68
2022/08/26 11:41:17;;;;;;;12.80;6.32;;;;;;;32.23;22.55;94503.97;5005764;28;20234;-68
2022/08/26 11:43:44;;;;;;;16.77;6.70;;;;;;;32.28;22.00;94495.72;4995502;28;20223;-68